Terminal Aerodrome Forecast
Issued by NWS

Home | Current Version | Previous Version | Text Only | Print | Product List | Glossary On
Versions: 1 2 3 4 5 6 7 8 9 10 11 12 13
000
FTUS46 KHNX 070536
TAFMER
TAF
KMER 070536Z 0706/0806 VRB04KT P6SM SCT120 BKN250
     FM071400 33007KT P6SM SCT060 BKN120
     FM071800 VRB05KT P6SM VCSH SCT040 BKN060 PROB30 0720/0801 3SM
      TSRAGS BKN040CB=

USA.gov is the U.S. government's official web portal to all federal, state and local government web resources and services.